createdAt,value
2022-10-11T00:01:20.623Z,73.01
2022-10-11T00:03:54.685Z,73.02
2022-10-11T00:06:26.364Z,73.02
2022-10-11T00:08:58.008Z,73.14
2022-10-11T00:11:29.864Z,72.98
2022-10-11T00:14:03.041Z,72.96
2022-10-11T00:16:34.930Z,73.16
2022-10-11T00:19:09.761Z,73.36
2022-10-11T00:21:41.565Z,73.58
2022-10-11T00:24:16.994Z,73.58
2022-10-11T00:26:54.900Z,73.76
2022-10-11T00:29:27.490Z,73.89
2022-10-11T00:31:59.038Z,73.91
2022-10-11T00:34:32.272Z,74.10
2022-10-11T00:37:04.037Z,74.30
2022-10-11T00:39:35.678Z,74.38
2022-10-11T00:42:12.340Z,74.46
2022-10-11T00:44:49.314Z,74.52
2022-10-11T00:47:23.248Z,74.44
2022-10-11T00:49:58.398Z,74.52
2022-10-11T00:52:34.018Z,74.52
2022-10-11T00:55:14.556Z,74.65
2022-10-11T00:57:50.380Z,74.71
2022-10-11T01:00:25.859Z,74.85
2022-10-11T01:02:57.738Z,74.99
2022-10-11T01:05:30.427Z,74.94
2022-10-11T01:08:03.589Z,74.91
2022-10-11T01:10:38.637Z,74.96
2022-10-11T01:13:22.247Z,74.84
2022-10-11T01:16:02.005Z,74.93
2022-10-11T01:18:43.240Z,74.92
2022-10-11T01:21:26.918Z,74.86
2022-10-11T01:24:41.030Z,74.82
2022-10-11T01:27:30.657Z,74.82
2022-10-11T01:30:20.791Z,74.81
2022-10-11T01:33:03.462Z,74.57
2022-10-11T01:35:42.005Z,74.70
2022-10-11T01:38:18.632Z,74.62
2022-10-11T01:40:53.959Z,74.67
2022-10-11T01:43:28.199Z,75.06
2022-10-11T01:46:01.812Z,75.06
2022-10-11T01:48:33.624Z,75.06
2022-10-11T01:51:06.053Z,74.96
2022-10-11T01:54:07.597Z,75.15
2022-10-11T01:56:53.988Z,75.14
2022-10-11T01:59:43.927Z,75.23
2022-10-11T02:02:33.629Z,75.22
2022-10-11T02:05:14.446Z,75.55
2022-10-11T02:07:50.560Z,75.30
2022-10-11T02:10:34.921Z,75.44
2022-10-11T02:13:10.680Z,75.60
2022-10-11T02:15:46.305Z,75.37
2022-10-11T02:18:20.698Z,76.34
2022-10-11T02:20:55.645Z,75.84
2022-10-11T02:23:33.786Z,75.92
2022-10-11T02:26:08.290Z,75.73
2022-10-11T02:28:44.374Z,75.96
2022-10-11T02:31:21.299Z,76.04
2022-10-11T02:34:00.094Z,76.04
2022-10-11T02:36:36.420Z,76.38
2022-10-11T02:39:13.522Z,76.12
2022-10-11T02:41:49.185Z,76.06
2022-10-11T02:44:27.974Z,76.12
2022-10-11T02:47:01.331Z,76.18
2022-10-11T02:49:34.375Z,76.34
2022-10-11T02:52:08.911Z,76.66
2022-10-11T02:54:40.439Z,76.45
2022-10-11T02:57:12.034Z,76.54
2022-10-11T02:59:43.586Z,76.85
2022-10-11T03:02:17.803Z,77.01
2022-10-11T03:04:49.434Z,77.31
2022-10-11T03:07:21.895Z,76.91
2022-10-11T03:09:53.506Z,77.25
2022-10-11T03:12:26.725Z,77.43
2022-10-11T03:14:58.410Z,77.35
2022-10-11T03:17:37.701Z,77.61
2022-10-11T03:20:12.340Z,77.37
2022-10-11T03:22:44.766Z,77.32
2022-10-11T03:25:16.464Z,77.19
2022-10-11T03:27:48.122Z,77.34
2022-10-11T03:30:20.241Z,77.59
2022-10-11T03:32:54.195Z,77.65
2022-10-11T03:35:25.975Z,77.37
2022-10-11T03:37:58.382Z,77.14
2022-10-11T03:40:30.155Z,77.03
2022-10-11T03:43:03.508Z,77.08
2022-10-11T03:45:35.095Z,77.12
2022-10-11T03:48:08.323Z,77.05
2022-10-11T03:50:40.282Z,77.22
2022-10-11T03:53:13.733Z,77.11
2022-10-11T03:55:45.556Z,77.08
2022-10-11T03:58:17.974Z,77.13
2022-10-11T04:00:49.945Z,77.11
2022-10-11T04:03:22.662Z,77.04
2022-10-11T04:05:54.277Z,76.99
2022-10-11T04:08:26.922Z,76.86
2022-10-11T04:10:58.484Z,76.70
2022-10-11T04:13:30.258Z,76.77
2022-10-11T04:16:02.043Z,76.81
2022-10-11T04:18:34.062Z,76.89
2022-10-11T04:21:06.034Z,76.81
2022-10-11T04:23:38.368Z,76.75
2022-10-11T04:26:10.311Z,76.72
2022-10-11T04:28:41.969Z,76.73
2022-10-11T04:31:13.541Z,76.70
2022-10-11T04:33:45.891Z,76.68
2022-10-11T04:36:17.431Z,76.56
2022-10-11T04:38:48.990Z,76.74
2022-10-11T04:41:20.505Z,76.78
2022-10-11T04:43:52.234Z,76.71
2022-10-11T04:46:23.817Z,76.74
2022-10-11T04:48:56.249Z,76.81
2022-10-11T04:51:28.876Z,76.85
2022-10-11T04:54:01.659Z,76.94
2022-10-11T04:56:33.375Z,76.73
2022-10-11T04:59:04.951Z,77.10
2022-10-11T05:01:36.650Z,77.47
2022-10-11T05:04:08.497Z,77.48
2022-10-11T05:06:40.101Z,77.47
2022-10-11T05:09:12.165Z,77.41
2022-10-11T05:11:43.773Z,77.29
2022-10-11T05:14:15.352Z,77.28
2022-10-11T05:16:46.975Z,77.17
2022-10-11T05:19:18.557Z,77.15
2022-10-11T05:21:50.130Z,77.28
2022-10-11T05:24:21.993Z,77.25
2022-10-11T05:26:53.563Z,77.34
2022-10-11T05:29:25.157Z,77.14
2022-10-11T05:31:56.742Z,77.03
2022-10-11T05:34:28.462Z,77.04
2022-10-11T05:37:00.111Z,77.04
2022-10-11T05:39:32.442Z,76.91
2022-10-11T05:42:08.920Z,76.86
2022-10-11T05:44:41.810Z,76.78
2022-10-11T05:47:14.389Z,76.76
2022-10-11T05:49:46.094Z,76.65
2022-10-11T05:52:21.602Z,76.60
2022-10-11T05:54:54.081Z,76.58
2022-10-11T05:57:25.685Z,76.68
2022-10-11T05:59:57.721Z,76.77
2022-10-11T06:02:29.434Z,76.70
2022-10-11T06:05:01.391Z,76.67
2022-10-11T06:08:02.471Z,76.71
2022-10-11T06:10:35.322Z,76.70
2022-10-11T06:13:07.917Z,76.77
2022-10-11T06:15:41.295Z,76.71
2022-10-11T06:18:12.803Z,76.83
2022-10-11T06:20:45.162Z,76.81
2022-10-11T06:23:16.839Z,76.85
2022-10-11T06:25:58.714Z,76.90
2022-10-11T06:28:30.945Z,76.89
2022-10-11T06:31:05.198Z,76.89
2022-10-11T06:33:39.661Z,76.83
2022-10-11T06:36:15.223Z,77.05
2022-10-11T06:38:46.868Z,76.97
2022-10-11T06:41:22.157Z,76.97
2022-10-11T06:43:54.303Z,77.00
2022-10-11T06:46:28.027Z,76.96
2022-10-11T06:48:59.898Z,76.95
2022-10-11T06:51:33.464Z,76.89
2022-10-11T06:54:05.482Z,76.71
2022-10-11T06:56:37.214Z,76.78
2022-10-11T06:59:09.743Z,76.70
2022-10-11T07:01:44.863Z,76.57
2022-10-11T07:04:23.452Z,76.51
2022-10-11T07:06:55.145Z,76.26
2022-10-11T07:09:26.933Z,76.20
2022-10-11T07:12:05.211Z,76.04
2022-10-11T07:14:36.899Z,75.84
2022-10-11T07:17:14.040Z,75.72
2022-10-11T07:19:45.677Z,75.64
2022-10-11T07:22:18.222Z,75.48
2022-10-11T07:24:49.828Z,75.43
2022-10-11T07:27:22.529Z,75.20
2022-10-11T07:29:54.061Z,75.08
2022-10-11T07:32:25.703Z,74.77
2022-10-11T07:34:57.626Z,74.89
2022-10-11T07:37:29.725Z,74.03
2022-10-11T07:40:01.404Z,74.19
2022-10-11T07:42:34.282Z,73.64
2022-10-11T07:45:06.882Z,73.49
2022-10-11T07:47:38.474Z,73.68
2022-10-11T07:50:11.705Z,73.41
2022-10-11T07:52:44.358Z,73.25
2022-10-11T07:55:16.055Z,72.72
2022-10-11T07:57:47.674Z,72.63
2022-10-11T08:00:20.024Z,71.03
2022-10-11T08:02:53.358Z,70.96
2022-10-11T08:05:24.920Z,71.46
2022-10-11T08:07:56.924Z,69.73
2022-10-11T08:10:29.073Z,70.25
2022-10-11T08:13:04.394Z,70.86
2022-10-11T08:18:54.539Z,70.27
2022-10-11T08:21:26.902Z,70.91
2022-10-11T08:23:59.492Z,70.51
2022-10-11T08:26:31.240Z,70.28
2022-10-11T08:29:04.085Z,70.34
2022-10-11T08:31:36.969Z,70.52
2022-10-11T08:34:08.682Z,70.11
2022-10-11T08:36:40.540Z,69.33
2022-10-11T08:39:13.191Z,68.51
2022-10-11T08:41:49.554Z,67.86
2022-10-11T08:45:05.388Z,68.25
2022-10-11T08:47:37.740Z,67.18
2022-10-11T08:50:24.345Z,68.03
2022-10-11T08:53:00.871Z,67.51
2022-10-11T08:55:40.663Z,67.92
2022-10-11T08:58:16.636Z,67.83
2022-10-11T09:00:54.411Z,67.79
2022-10-11T09:03:36.270Z,66.99
2022-10-11T09:06:19.827Z,67.00
2022-10-11T09:09:04.250Z,66.46
2022-10-11T09:11:49.805Z,65.14
2022-10-11T09:14:46.363Z,65.16
2022-10-11T09:17:30.298Z,65.27
2022-10-11T09:20:23.790Z,63.60
2022-10-11T09:23:01.620Z,64.06
2022-10-11T09:25:38.233Z,64.81
2022-10-11T09:28:18.762Z,64.53
2022-10-11T09:31:00.760Z,63.97
2022-10-11T09:33:36.593Z,64.30
2022-10-11T09:36:20.197Z,62.45
2022-10-11T09:39:06.354Z,63.70
2022-10-11T09:41:44.372Z,62.27
2022-10-11T09:44:23.098Z,62.02
2022-10-11T09:46:56.954Z,61.80
2022-10-11T09:49:34.483Z,61.39
2022-10-11T09:52:08.877Z,59.92
2022-10-11T09:54:47.732Z,60.68
2022-10-11T09:57:38.998Z,60.57
2022-10-11T10:00:31.164Z,61.27
2022-10-11T10:03:05.410Z,59.75
2022-10-11T10:05:38.749Z,59.17
2022-10-11T10:08:25.358Z,58.93
2022-10-11T10:11:05.661Z,57.90
2022-10-11T10:13:45.130Z,57.43
2022-10-11T10:16:27.001Z,59.78
2022-10-11T10:19:01.432Z,56.42
2022-10-11T10:21:36.468Z,57.92
2022-10-11T10:24:23.320Z,57.85
2022-10-11T10:27:18.289Z,55.85
2022-10-11T10:30:13.334Z,57.46
2022-10-11T10:32:54.279Z,56.18
2022-10-11T10:35:36.255Z,56.09
2022-10-11T10:38:26.231Z,56.34
2022-10-11T10:41:02.626Z,57.48
2022-10-11T10:43:37.698Z,55.74
2022-10-11T10:46:30.991Z,55.79
2022-10-11T10:52:19.813Z,56.64
2022-10-11T10:54:57.787Z,56.40
2022-10-11T10:57:38.148Z,56.78
2022-10-11T11:00:22.870Z,54.94
2022-10-11T11:03:01.387Z,54.38
2022-10-11T11:05:46.757Z,53.51
2022-10-11T11:08:40.531Z,53.61
2022-10-11T11:11:33.756Z,53.39
2022-10-11T11:14:13.045Z,53.30
2022-10-11T11:16:51.350Z,53.02
2022-10-11T11:19:37.258Z,52.99
2022-10-11T11:22:17.334Z,52.85
2022-10-11T11:24:58.562Z,52.10
2022-10-11T11:27:48.498Z,52.07
2022-10-11T11:30:31.239Z,51.64
2022-10-11T11:33:12.111Z,52.10
2022-10-11T11:35:46.951Z,49.98
2022-10-11T11:38:28.646Z,48.83
2022-10-11T11:45:24.289Z,48.02
2022-10-11T11:48:02.525Z,50.16
2022-10-11T11:50:41.859Z,49.17
2022-10-11T11:53:19.353Z,49.46
2022-10-11T11:55:57.119Z,49.84
2022-10-11T11:58:37.067Z,49.82
2022-10-11T12:01:19.586Z,50.55
2022-10-11T12:04:08.677Z,51.39
2022-10-11T12:06:58.152Z,50.83
2022-10-11T12:09:36.860Z,51.50
2022-10-11T12:12:39.438Z,51.87
2022-10-11T12:15:25.031Z,51.68
2022-10-11T12:18:15.432Z,51.77
2022-10-11T12:21:02.108Z,51.65
2022-10-11T12:23:44.055Z,51.08
2022-10-11T12:26:45.152Z,51.61
2022-10-11T12:29:34.893Z,51.53
2022-10-11T12:32:53.293Z,50.96
2022-10-11T12:35:58.056Z,51.35
2022-10-11T12:38:31.846Z,50.64
2022-10-11T12:41:40.032Z,48.94
2022-10-11T12:44:23.253Z,49.75
2022-10-11T12:47:19.283Z,49.47
2022-10-11T12:50:03.836Z,49.07
2022-10-11T12:52:51.160Z,48.38
2022-10-11T12:55:39.299Z,48.36
2022-10-11T12:58:26.840Z,46.80
2022-10-11T13:01:23.587Z,46.30
2022-10-11T13:04:01.772Z,44.95
2022-10-11T13:06:35.636Z,44.53
2022-10-11T13:09:18.202Z,46.05
2022-10-11T13:11:53.521Z,43.71
2022-10-11T13:14:28.206Z,44.99
2022-10-11T13:17:16.391Z,44.61
2022-10-11T13:19:52.198Z,45.56
2022-10-11T13:22:25.805Z,44.95
2022-10-11T13:25:00.212Z,46.25
2022-10-11T13:27:31.995Z,46.62
2022-10-11T13:30:15.497Z,45.41
2022-10-11T13:32:54.808Z,43.47
2022-10-11T13:35:32.627Z,44.96
2022-10-11T13:38:08.658Z,44.54
2022-10-11T13:40:45.349Z,45.61
2022-10-11T13:43:25.971Z,43.88
2022-10-11T13:46:00.549Z,45.35
2022-10-11T13:48:39.811Z,44.46
2022-10-11T13:51:18.049Z,44.53
2022-10-11T13:54:02.848Z,46.00
2022-10-11T13:56:37.654Z,45.26
2022-10-11T13:59:17.079Z,44.74
2022-10-11T14:01:49.690Z,46.37
2022-10-11T14:04:23.278Z,44.60
2022-10-11T14:07:02.545Z,45.38
2022-10-11T14:09:38.025Z,46.07
2022-10-11T14:12:30.220Z,45.32
2022-10-11T14:15:03.251Z,45.80
2022-10-11T14:17:46.735Z,45.72
2022-10-11T14:20:21.955Z,45.41
2022-10-11T14:22:56.005Z,46.02
2022-10-11T14:25:27.834Z,45.78
2022-10-11T14:27:59.804Z,46.12
2022-10-11T14:30:32.536Z,46.15
2022-10-11T14:33:04.828Z,46.33
2022-10-11T14:35:37.155Z,46.17
2022-10-11T14:38:10.771Z,45.83
2022-10-11T14:40:42.438Z,46.03
2022-10-11T14:43:16.906Z,45.94
2022-10-11T14:45:48.669Z,45.78
2022-10-11T14:48:43.005Z,45.76
2022-10-11T14:51:15.914Z,45.75
2022-10-11T14:53:47.684Z,46.51
2022-10-11T14:56:21.657Z,46.12
2022-10-11T14:58:53.802Z,46.27
2022-10-11T15:01:25.599Z,46.80
2022-10-11T15:03:57.386Z,47.06
2022-10-11T15:06:33.172Z,47.11
2022-10-11T15:09:05.195Z,47.39
2022-10-11T15:11:39.359Z,47.43
2022-10-11T15:14:11.161Z,47.55
2022-10-11T15:16:43.112Z,47.80
2022-10-11T15:19:17.882Z,47.92
2022-10-11T15:21:50.305Z,48.12
2022-10-11T15:24:23.146Z,48.56
2022-10-11T15:26:55.116Z,48.69
2022-10-11T15:29:26.937Z,48.76
2022-10-11T15:31:58.649Z,49.00
2022-10-11T15:34:30.420Z,49.16
2022-10-11T15:37:02.145Z,49.49
2022-10-11T15:39:34.013Z,49.84
2022-10-11T15:42:05.718Z,49.93
2022-10-11T15:44:37.543Z,50.18
2022-10-11T15:47:09.787Z,50.44
2022-10-11T15:49:41.569Z,50.66
2022-10-11T15:52:13.360Z,50.83
2022-10-11T15:54:45.089Z,50.80
2022-10-11T15:57:18.372Z,50.86
2022-10-11T15:59:50.129Z,51.16
2022-10-11T16:02:21.850Z,51.65
2022-10-11T16:04:55.531Z,51.68
2022-10-11T16:07:27.318Z,52.05
2022-10-11T16:09:59.181Z,52.15
2022-10-11T16:12:31.090Z,52.26
2022-10-11T16:15:02.984Z,52.60
2022-10-11T16:17:34.769Z,52.73
2022-10-11T16:20:13.152Z,53.07
2022-10-11T16:22:44.955Z,53.23
2022-10-11T16:25:17.072Z,53.48
2022-10-11T16:27:49.116Z,53.81
2022-10-11T16:30:24.389Z,54.12
2022-10-11T16:32:56.129Z,54.25
2022-10-11T16:35:32.375Z,54.59
2022-10-11T16:38:04.613Z,54.73
2022-10-11T16:40:38.660Z,54.90
2022-10-11T16:43:11.119Z,55.09
2022-10-11T16:45:42.893Z,55.32
2022-10-11T16:48:14.603Z,55.38
2022-10-11T16:50:48.746Z,55.65
2022-10-11T16:53:21.846Z,56.03
2022-10-11T16:55:54.077Z,56.13
2022-10-11T16:58:25.886Z,56.33
2022-10-11T17:00:57.658Z,56.40
2022-10-11T17:03:29.790Z,56.57
2022-10-11T17:06:01.573Z,56.62
2022-10-11T17:08:33.721Z,56.89
2022-10-11T17:11:06.322Z,57.04
2022-10-11T17:13:38.090Z,57.26
2022-10-11T17:16:11.946Z,57.58
2022-10-11T17:18:44.005Z,57.62
2022-10-11T17:21:19.695Z,57.71
2022-10-11T17:23:51.515Z,57.75
2022-10-11T17:26:26.413Z,58.15
2022-10-11T17:29:00.423Z,58.18
2022-10-11T17:31:32.885Z,58.39
2022-10-11T17:34:04.588Z,58.43
2022-10-11T17:36:36.530Z,58.57
2022-10-11T17:39:11.166Z,58.73
2022-10-11T17:41:44.372Z,58.80
2022-10-11T17:44:18.558Z,58.95
2022-10-11T17:46:51.066Z,59.13
2022-10-11T17:49:22.823Z,59.15
2022-10-11T17:51:55.222Z,59.35
2022-10-11T17:54:27.121Z,59.46
2022-10-11T17:56:59.016Z,59.54
2022-10-11T17:59:32.343Z,59.87
2022-10-11T18:02:04.025Z,59.88
2022-10-11T18:04:35.643Z,60.00
2022-10-11T18:07:07.280Z,60.16
2022-10-11T18:09:38.838Z,60.38
2022-10-11T18:12:11.378Z,60.43
2022-10-11T18:14:43.044Z,60.49
2022-10-11T18:17:14.655Z,60.61
2022-10-11T18:19:46.447Z,60.84
2022-10-11T18:22:18.054Z,60.90
2022-10-11T18:24:50.708Z,61.01
2022-10-11T18:27:22.349Z,61.07
2022-10-11T18:29:53.952Z,61.16
2022-10-11T18:32:27.170Z,61.25
2022-10-11T18:34:59.878Z,61.35
2022-10-11T18:37:31.740Z,61.53
2022-10-11T18:40:03.829Z,61.69
2022-10-11T18:42:35.419Z,61.78
2022-10-11T18:45:10.387Z,62.11
2022-10-11T18:47:42.004Z,62.28
2022-10-11T18:50:13.744Z,62.49
2022-10-11T18:52:48.589Z,62.58
2022-10-11T18:55:20.734Z,62.93
2022-10-11T18:57:52.288Z,62.89
2022-10-11T19:00:40.147Z,63.02
2022-10-11T19:03:13.016Z,63.24
2022-10-11T19:05:45.154Z,63.06
2022-10-11T19:08:17.017Z,63.24
2022-10-11T19:10:49.640Z,63.50
2022-10-11T19:13:21.518Z,63.58
2022-10-11T19:15:53.284Z,63.45
2022-10-11T19:18:25.762Z,63.57
2022-10-11T19:21:04.294Z,63.32
2022-10-11T19:23:39.489Z,63.36
2022-10-11T19:26:16.170Z,63.29
2022-10-11T19:28:49.078Z,63.37
2022-10-11T19:31:20.836Z,63.35
2022-10-11T19:33:53.726Z,63.50
2022-10-11T19:36:25.983Z,63.41
2022-10-11T19:38:58.061Z,63.39
2022-10-11T19:41:29.794Z,63.51
2022-10-11T19:44:01.978Z,63.62
2022-10-11T19:49:26.194Z,63.68
2022-10-11T19:51:58.579Z,63.65
2022-10-11T19:54:30.476Z,63.70
2022-10-11T19:57:02.006Z,63.88
2022-10-11T19:59:33.632Z,63.91
2022-10-11T20:02:05.256Z,63.98
2022-10-11T20:04:52.070Z,64.20
2022-10-11T20:07:25.461Z,64.10
2022-10-11T20:09:57.040Z,64.18
2022-10-11T20:12:29.494Z,64.36
2022-10-11T20:15:01.284Z,64.37
2022-10-11T20:17:46.766Z,64.33
2022-10-11T20:20:23.662Z,64.31
2022-10-11T20:22:55.619Z,64.27
2022-10-11T20:25:27.416Z,64.26
2022-10-11T20:27:58.921Z,64.33
2022-10-11T20:30:32.259Z,64.22
2022-10-11T20:33:03.846Z,64.33
2022-10-11T20:35:35.509Z,64.32
2022-10-11T20:38:07.081Z,64.39
2022-10-11T20:40:43.922Z,64.34
2022-10-11T20:43:15.698Z,64.32
2022-10-11T20:45:47.845Z,64.38
2022-10-11T20:48:19.466Z,64.46
2022-10-11T20:50:52.666Z,64.46
2022-10-11T20:53:24.495Z,64.48
2022-10-11T20:55:56.360Z,64.57
2022-10-11T20:58:27.913Z,64.64
2022-10-11T21:01:01.143Z,64.72
2022-10-11T21:03:32.688Z,64.71
2022-10-11T21:06:05.055Z,64.70
2022-10-11T21:08:37.010Z,64.77
2022-10-11T21:11:10.763Z,64.93
2022-10-11T21:13:43.217Z,64.82
2022-10-11T21:16:17.090Z,64.81
2022-10-11T21:18:53.032Z,64.91
2022-10-11T21:21:26.102Z,64.78
2022-10-11T21:23:58.445Z,64.87
2022-10-11T21:26:30.804Z,64.95
2022-10-11T21:29:04.130Z,64.84
2022-10-11T21:31:37.086Z,65.05
2022-10-11T21:34:08.660Z,64.84
2022-10-11T21:36:40.283Z,65.00
2022-10-11T21:39:11.853Z,64.71
2022-10-11T21:41:47.553Z,65.02
2022-10-11T21:44:19.097Z,64.94
2022-10-11T21:47:07.629Z,64.93
2022-10-11T21:49:44.408Z,64.96
2022-10-11T21:52:18.199Z,65.14
2022-10-11T21:54:49.731Z,65.19
2022-10-11T21:57:21.332Z,65.45
2022-10-11T21:59:52.888Z,65.47
2022-10-11T22:02:25.269Z,65.75
2022-10-11T22:04:56.823Z,65.82
2022-10-11T22:07:28.546Z,65.97
2022-10-11T22:10:00.167Z,65.97
2022-10-11T22:12:33.494Z,65.83
2022-10-11T22:15:05.526Z,65.87
2022-10-11T22:17:37.171Z,65.62
2022-10-11T22:20:14.595Z,65.49
2022-10-11T22:22:50.098Z,65.56
2022-10-11T22:25:21.679Z,65.59
2022-10-11T22:27:53.296Z,65.46
2022-10-11T22:30:24.942Z,65.52
2022-10-11T22:32:58.233Z,65.56
2022-10-11T22:35:32.417Z,65.51
2022-10-11T22:38:08.442Z,65.63
2022-10-11T22:40:43.271Z,65.51
2022-10-11T22:43:15.746Z,65.66
2022-10-11T22:45:48.134Z,65.53
2022-10-11T22:48:19.763Z,65.59
2022-10-11T22:50:51.695Z,65.71
2022-10-11T22:53:26.555Z,65.76
2022-10-11T22:55:58.112Z,65.66
2022-10-11T22:58:29.717Z,65.56
2022-10-11T23:01:09.113Z,65.61
2022-10-11T23:03:42.539Z,65.56
2022-10-11T23:06:14.141Z,65.63
2022-10-11T23:08:46.574Z,65.47
2022-10-11T23:11:18.239Z,65.60
2022-10-11T23:13:51.435Z,65.53
2022-10-11T23:16:23.028Z,65.53
2022-10-11T23:18:56.226Z,65.78
2022-10-11T23:21:27.796Z,65.80
2022-10-11T23:24:00.308Z,65.83
2022-10-11T23:26:32.059Z,65.69
2022-10-11T23:29:04.766Z,65.74
2022-10-11T23:31:36.486Z,65.73
2022-10-11T23:34:10.115Z,65.58
2022-10-11T23:36:41.687Z,65.67
2022-10-11T23:39:16.148Z,65.70
2022-10-11T23:41:47.818Z,65.63
2022-10-11T23:44:20.272Z,65.70
2022-10-11T23:46:52.233Z,65.60
2022-10-11T23:49:27.163Z,65.64
2022-10-11T23:51:59.075Z,65.62
2022-10-11T23:54:31.544Z,65.68
2022-10-11T23:57:03.060Z,65.78
2022-10-11T23:59:34.703Z,65.88
